Time;durP1;ratioP1;P1;durP2;ratioP2;P2;SDS_P1;SDS_P2;PMS_P1;PMS_P2;Temp;Humidity;BMP_temperature;BMP_pressure;BME280_temperature;BME280_humidity;BME280_pressure;Samples;Min_cycle;Max_cycle;Signal;HPM_P1;HPM_P2
2022/10/10 00:06:07;;;;;;;0.20;0.20;;;9.20;99.90;;;;;;4937584;29;20038;-73
2022/10/10 00:08:32;;;;;;;0.20;0.20;;;9.40;99.90;;;;;;4945696;28;20407;-74
2022/10/10 00:10:58;;;;;;;0.20;0.20;;;9.40;99.90;;;;;;4943981;29;20043;-73
2022/10/10 00:13:23;;;;;;;0.10;0.10;;;9.40;99.90;;;;;;4940230;29;20043;-73
2022/10/10 00:15:49;;;;;;;0.10;0.10;;;9.30;99.90;;;;;;4924390;29;20059;-73
2022/10/10 00:18:15;;;;;;;0.17;0.17;;;9.40;99.90;;;;;;4939343;29;20053;-73
2022/10/10 00:20:41;;;;;;;0.20;0.20;;;9.40;99.90;;;;;;4947723;29;20040;-74
2022/10/10 00:23:07;;;;;;;0.10;0.10;;;9.30;99.90;;;;;;4922576;29;20066;-73
2022/10/10 00:25:32;;;;;;;0.20;0.20;;;9.40;99.90;;;;;;4938261;29;20101;-73
2022/10/10 00:28:02;;;;;;;0.13;0.13;;;9.30;99.90;;;;;;4920799;29;20043;-73
2022/10/10 00:30:53;;;;;;;0.20;0.20;;;9.30;99.90;;;;;;5078233;23;20054;-74
2022/10/10 00:33:19;;;;;;;0.20;0.20;;;8.20;99.90;;;;;;5219718;23;20047;-73
2022/10/10 00:35:45;;;;;;;0.13;0.13;;;9.30;99.90;;;;;;4941762;28;20055;-74
2022/10/10 00:38:10;;;;;;;0.20;0.20;;;9.30;99.90;;;;;;4925847;28;20055;-73
2022/10/10 00:41:01;;;;;;;0.10;0.10;;;9.20;99.90;;;;;;4942523;28;20047;-73
2022/10/10 00:43:28;;;;;;;0.10;0.10;;;9.30;99.90;;;;;;4945991;28;20051;-74
2022/10/10 00:45:54;;;;;;;0.20;0.20;;;9.20;99.90;;;;;;4930008;29;20035;-73
2022/10/10 00:48:39;;;;;;;0.13;0.13;;;9.30;99.90;;;;;;4926912;28;20044;-73
2022/10/10 00:51:46;;;;;;;0.20;0.20;;;9.20;99.90;;;;;;5416408;23;20044;-74
2022/10/10 00:54:18;;;;;;;0.17;0.17;;;9.20;99.90;;;;;;4899578;29;20065;-74
2022/10/10 00:57:19;;;;;;;0.20;0.20;;;9.20;99.90;;;;;;4909599;29;20091;-73
2022/10/10 00:59:55;;;;;;;;;;;9.10;99.90;;;;;;4832548;29;20050;-73
2022/10/10 01:02:30;;;;;;;0.20;0.20;;;8.00;99.90;;;;;;4878858;29;19930;-73
2022/10/10 01:05:34;;;;;;;0.20;0.20;;;9.10;99.90;;;;;;4922611;29;20055;-73
2022/10/10 01:12:14;;;;;;;0.10;0.10;;;9.00;99.90;;;;;;4906997;29;20159;-74
2022/10/10 01:15:17;;;;;;;0.20;0.20;;;9.00;99.90;;;;;;4904954;29;20071;-73
2022/10/10 01:22:10;;;;;;;0.10;0.10;;;8.90;99.90;;;;;;4911879;29;20787;-74
2022/10/10 01:25:13;;;;;;;0.20;0.20;;;8.80;99.90;;;;;;4910981;29;20396;-74
2022/10/10 01:28:20;;;;;;;0.20;0.20;;;8.80;99.90;;;;;;4911695;29;20063;-74
2022/10/10 01:30:59;;;;;;;0.20;0.20;;;8.70;99.90;;;;;;4911453;29;20048;-74
2022/10/10 01:37:18;;;;;;;0.20;0.20;;;8.70;99.90;;;;;;4914070;29;20184;-74
2022/10/10 01:40:13;;;;;;;0.20;0.20;;;8.60;99.90;;;;;;4893720;29;20605;-74
2022/10/10 01:43:19;;;;;;;;;;;;;;;;;;;;;
2022/10/10 01:46:22;;;;;;;0.13;0.13;;;8.50;99.90;;;;;;4872182;29;20051;-72
2022/10/10 01:48:51;;;;;;;0.20;0.20;;;8.40;99.90;;;;;;4913212;29;20179;-74
2022/10/10 01:51:17;;;;;;;0.20;0.20;;;8.60;99.90;;;;;;4914666;29;20115;-73
2022/10/10 01:53:50;;;;;;;0.20;0.20;;;8.40;99.90;;;;;;4912140;29;20559;-73
2022/10/10 01:56:28;;;;;;;0.20;0.20;;;8.30;99.90;;;;;;4913984;29;20087;-73
2022/10/10 01:59:02;;;;;;;0.20;0.20;;;8.30;99.90;;;;;;4895084;29;20048;-74
2022/10/10 02:01:37;;;;;;;0.10;0.10;;;8.30;99.90;;;;;;4895437;29;20057;-73
2022/10/10 02:04:27;;;;;;;0.10;0.10;;;8.30;99.90;;;;;;4894588;29;20400;-73
2022/10/10 02:06:59;;;;;;;0.10;0.10;;;8.20;99.90;;;;;;4894279;29;20080;-73
2022/10/10 02:09:37;;;;;;;0.20;0.20;;;8.30;99.90;;;;;;4897601;29;20465;-73
2022/10/10 02:12:03;;;;;;;0.20;0.20;;;8.20;99.90;;;;;;4894905;29;20455;-73
2022/10/10 02:14:52;;;;;;;0.20;0.20;;;8.20;99.90;;;;;;4912876;29;20475;-73
2022/10/10 02:17:20;;;;;;;0.20;0.20;;;8.20;99.90;;;;;;4896889;29;20408;-73
2022/10/10 02:19:54;;;;;;;0.20;0.20;;;8.20;99.90;;;;;;4911774;29;20048;-73
2022/10/10 02:22:22;;;;;;;0.20;0.20;;;8.20;99.90;;;;;;4897330;29;20143;-74
2022/10/10 02:24:49;;;;;;;0.20;0.20;;;8.20;99.90;;;;;;4914516;29;20040;-74
2022/10/10 02:27:36;;;;;;;0.10;0.10;;;8.10;99.90;;;;;;4896367;29;20072;-73
2022/10/10 02:30:04;;;;;;;0.10;0.10;;;8.10;99.90;;;;;;4893672;29;20103;-73
2022/10/10 02:32:43;;;;;;;0.20;0.20;;;8.00;99.90;;;;;;4926692;29;20130;-73
2022/10/10 02:35:18;;;;;;;0.10;0.10;;;8.00;99.90;;;;;;4925866;29;20146;-71
2022/10/10 02:37:45;;;;;;;0.20;0.20;;;8.00;99.90;;;;;;4919525;29;20427;-73
2022/10/10 02:40:27;;;;;;;0.20;0.20;;;7.90;99.90;;;;;;4912816;29;20048;-73
2022/10/10 02:42:59;;;;;;;0.10;0.10;;;7.90;99.90;;;;;;4911745;29;20052;-74
2022/10/10 02:45:26;;;;;;;;;;;7.90;99.90;;;;;;4925875;29;20048;-73
2022/10/10 02:47:52;;;;;;;0.10;0.10;;;7.80;99.90;;;;;;4894810;29;19930;-74
2022/10/10 02:50:18;;;;;;;0.20;0.20;;;7.80;99.90;;;;;;4909679;29;20545;-73
2022/10/10 02:52:44;;;;;;;0.20;0.20;;;7.80;99.90;;;;;;4896590;29;20052;-74
2022/10/10 02:55:09;;;;;;;0.20;0.20;;;7.80;99.90;;;;;;4908381;29;20050;-73
2022/10/10 02:57:35;;;;;;;0.20;0.20;;;8.00;99.90;;;;;;4895977;29;20048;-73
2022/10/10 03:00:00;;;;;;;0.20;0.20;;;7.80;99.90;;;;;;4909806;29;20120;-73
2022/10/10 03:02:26;;;;;;;0.17;0.17;;;7.80;99.90;;;;;;4909220;29;20036;-72
2022/10/10 03:04:52;;;;;;;0.10;0.10;;;7.80;99.90;;;;;;4907892;29;20067;-74
2022/10/10 03:07:18;;;;;;;0.20;0.20;;;7.80;99.90;;;;;;4912611;29;20122;-73
2022/10/10 03:09:43;;;;;;;0.10;0.10;;;7.80;99.90;;;;;;4895008;29;20076;-74
2022/10/10 03:12:09;;;;;;;0.20;0.20;;;7.90;99.90;;;;;;4895423;29;20055;-74
2022/10/10 03:14:34;;;;;;;0.20;0.20;;;7.80;99.90;;;;;;4911813;29;20051;-73
2022/10/10 03:17:00;;;;;;;0.10;0.10;;;7.70;99.90;;;;;;4909726;29;20048;-73
2022/10/10 03:19:26;;;;;;;0.10;0.10;;;7.70;99.90;;;;;;4894119;29;20099;-73
2022/10/10 03:21:54;;;;;;;0.10;0.10;;;7.70;99.90;;;;;;4913016;29;20635;-74
2022/10/10 03:24:20;;;;;;;0.20;0.20;;;7.70;99.90;;;;;;4912029;29;20131;-73
2022/10/10 03:26:45;;;;;;;0.20;0.20;;;7.70;99.90;;;;;;4895451;29;20108;-73
2022/10/10 03:29:11;;;;;;;0.20;0.20;;;7.70;99.90;;;;;;4891291;29;20139;-73
2022/10/10 03:31:37;;;;;;;0.20;0.20;;;7.60;99.90;;;;;;4908203;29;20040;-74
2022/10/10 03:34:02;;;;;;;0.10;0.10;;;7.60;99.90;;;;;;4921867;29;20544;-74
2022/10/10 03:36:31;;;;;;;0.20;0.20;;;7.60;99.90;;;;;;4893574;29;20047;-73
2022/10/10 03:38:56;;;;;;;0.13;0.13;;;7.60;99.90;;;;;;4894866;29;20112;-74
2022/10/10 03:41:22;;;;;;;0.20;0.20;;;7.60;99.90;;;;;;4894464;29;20055;-73
2022/10/10 03:43:48;;;;;;;0.20;0.20;;;7.60;99.90;;;;;;4894930;29;20166;-73
2022/10/10 03:46:16;;;;;;;0.20;0.20;;;7.50;99.90;;;;;;4923909;29;20052;-73
2022/10/10 03:48:42;;;;;;;0.20;0.20;;;7.50;99.90;;;;;;4911414;29;20384;-73
2022/10/10 03:51:07;;;;;;;0.17;0.17;;;7.50;99.90;;;;;;4906494;29;20415;-73
2022/10/10 03:53:33;;;;;;;0.20;0.20;;;7.50;99.90;;;;;;4910715;29;20108;-74
2022/10/10 03:55:58;;;;;;;0.20;0.20;;;7.50;99.90;;;;;;4895389;29;20491;-73
2022/10/10 03:58:24;;;;;;;0.20;0.20;;;7.50;99.90;;;;;;4910914;29;20036;-74
2022/10/10 04:00:58;;;;;;;0.20;0.20;;;7.50;99.90;;;;;;4891495;29;20067;-73
2022/10/10 04:03:24;;;;;;;0.20;0.20;;;7.40;99.90;;;;;;4892421;29;20092;-73
2022/10/10 04:05:50;;;;;;;0.20;0.20;;;7.40;99.90;;;;;;4907353;29;20127;-74
2022/10/10 04:08:16;;;;;;;0.20;0.20;;;7.40;99.90;;;;;;4894027;29;20561;-74
2022/10/10 04:10:42;;;;;;;0.20;0.20;;;7.40;99.90;;;;;;4906196;29;20055;-73
2022/10/10 04:13:11;;;;;;;0.20;0.20;;;7.50;99.90;;;;;;4890685;29;20052;-73
2022/10/10 04:15:39;;;;;;;0.20;0.20;;;7.40;99.90;;;;;;4889279;29;20048;-74
2022/10/10 04:18:06;;;;;;;0.20;0.20;;;7.40;99.90;;;;;;4893132;29;20063;-72
2022/10/10 04:20:32;;;;;;;0.10;0.10;;;7.40;99.90;;;;;;4904067;29;20490;-73
2022/10/10 04:22:57;;;;;;;0.10;0.10;;;7.40;99.90;;;;;;4923581;29;20052;-74
2022/10/10 04:25:23;;;;;;;0.20;0.20;;;7.40;99.90;;;;;;4894646;29;20476;-73
2022/10/10 04:27:49;;;;;;;0.20;0.20;;;7.40;99.90;;;;;;4892367;29;20698;-73
2022/10/10 04:30:15;;;;;;;0.20;0.20;;;7.50;99.90;;;;;;4887893;29;20040;-73
2022/10/10 04:32:40;;;;;;;0.20;0.20;;;7.50;99.90;;;;;;4909299;29;20551;-73
2022/10/10 04:35:09;;;;;;;0.15;0.15;;;8.10;99.90;;;;;;4890769;29;20044;-73
2022/10/10 04:37:35;;;;;;;0.20;0.20;;;7.50;99.90;;;;;;4911770;29;20412;-73
2022/10/10 04:40:01;;;;;;;0.20;0.20;;;7.50;99.90;;;;;;4891982;29;20403;-73
2022/10/10 04:42:27;;;;;;;0.20;0.20;;;7.50;99.90;;;;;;4884900;29;20217;-74
2022/10/10 04:44:55;;;;;;;0.20;0.20;;;7.50;99.90;;;;;;4910671;29;20801;-73
2022/10/10 04:47:24;;;;;;;0.20;0.20;;;7.50;99.90;;;;;;4911886;29;20036;-73
2022/10/10 04:49:49;;;;;;;0.10;0.10;;;7.50;99.90;;;;;;4893136;29;20060;-73
2022/10/10 04:52:18;;;;;;;0.20;0.20;;;7.50;99.90;;;;;;4912173;29;20060;-74
2022/10/10 04:54:44;;;;;;;0.20;0.20;;;7.50;99.90;;;;;;4910007;29;20056;-74
2022/10/10 04:57:10;;;;;;;0.10;0.10;;;7.50;99.90;;;;;;4898286;29;20047;-73
2022/10/10 04:59:35;;;;;;;0.20;0.20;;;7.70;99.90;;;;;;4924608;29;20040;-73
2022/10/10 05:02:01;;;;;;;0.15;0.15;;;7.50;99.90;;;;;;4913304;29;20094;-73
2022/10/10 05:04:26;;;;;;;0.10;0.10;;;7.40;99.90;;;;;;4912835;29;20159;-74
2022/10/10 05:06:52;;;;;;;0.20;0.20;;;7.50;99.90;;;;;;4912099;29;20048;-73
2022/10/10 05:09:18;;;;;;;0.20;0.20;;;7.40;99.90;;;;;;4913533;29;20136;-73
2022/10/10 05:11:43;;;;;;;0.20;0.20;;;7.40;99.90;;;;;;4914965;29;20056;-74
2022/10/10 05:14:12;;;;;;;0.20;0.20;;;7.40;99.90;;;;;;4892197;29;20044;-73
2022/10/10 05:16:41;;;;;;;0.20;0.20;;;7.60;99.90;;;;;;4912838;29;20040;-73
2022/10/10 05:19:06;;;;;;;0.17;0.17;;;7.40;99.90;;;;;;4895732;29;20603;-73
2022/10/10 05:21:32;;;;;;;0.20;0.20;;;7.70;99.90;;;;;;4909429;29;20056;-73
2022/10/10 05:23:57;;;;;;;0.20;0.20;;;7.40;99.90;;;;;;4908579;29;20044;-73
2022/10/10 05:26:23;;;;;;;0.20;0.20;;;7.80;99.90;;;;;;4895514;29;20103;-73
2022/10/10 05:28:49;;;;;;;0.25;0.25;;;7.50;99.90;;;;;;4926075;29;20052;-73
2022/10/10 05:31:14;;;;;;;0.20;0.20;;;7.40;99.90;;;;;;4897357;29;20068;-73
2022/10/10 05:33:40;;;;;;;0.10;0.10;;;7.40;99.90;;;;;;4896554;29;20052;-73
2022/10/10 05:36:12;;;;;;;0.20;0.20;;;7.40;99.90;;;;;;4894527;29;20051;-73
2022/10/10 05:38:39;;;;;;;0.20;0.20;;;7.40;99.90;;;;;;4912164;29;20040;-73
2022/10/10 05:41:05;;;;;;;0.20;0.20;;;7.40;99.90;;;;;;4928065;29;20044;-73
2022/10/10 05:43:31;;;;;;;0.20;0.20;;;7.40;99.90;;;;;;4909209;29;20391;-73
2022/10/10 05:45:57;;;;;;;0.10;0.10;;;6.90;99.90;;;;;;4896019;29;20044;-73
2022/10/10 05:48:25;;;;;;;0.20;0.20;;;7.30;99.90;;;;;;4898323;29;20655;-73
2022/10/10 05:50:54;;;;;;;0.20;0.20;;;7.30;99.90;;;;;;4911924;29;20048;-73
2022/10/10 05:53:22;;;;;;;0.20;0.20;;;7.30;99.90;;;;;;4906435;29;20723;-73
2022/10/10 05:55:48;;;;;;;0.20;0.20;;;7.30;99.90;;;;;;4911178;29;20052;-73
2022/10/10 05:58:13;;;;;;;0.20;0.20;;;7.30;99.90;;;;;;4895559;29;20044;-73
2022/10/10 06:00:44;;;;;;;0.15;0.15;;;7.30;99.90;;;;;;4921807;29;20104;-72
2022/10/10 06:03:13;;;;;;;0.20;0.20;;;7.40;99.90;;;;;;4902286;29;20116;-73
2022/10/10 06:05:47;;;;;;;0.20;0.20;;;7.30;99.90;;;;;;4913009;29;20058;-73
2022/10/10 06:08:13;;;;;;;0.20;0.20;;;7.30;99.90;;;;;;4895079;29;20063;-73
2022/10/10 06:10:44;;;;;;;0.20;0.20;;;7.30;99.90;;;;;;4911661;29;20052;-73
2022/10/10 06:13:12;;;;;;;0.20;0.20;;;7.30;99.90;;;;;;4912987;29;20540;-73
2022/10/10 06:15:39;;;;;;;0.20;0.20;;;7.30;99.90;;;;;;4896431;29;20075;-73
2022/10/10 06:18:08;;;;;;;0.20;0.20;;;7.30;99.90;;;;;;4910734;29;20142;-73
2022/10/10 06:20:39;;;;;;;0.20;0.20;;;7.30;99.90;;;;;;4907701;29;20123;-73
2022/10/10 06:23:06;;;;;;;0.20;0.20;;;7.40;99.90;;;;;;4911641;29;20536;-73
2022/10/10 06:25:34;;;;;;;0.20;0.20;;;7.30;99.90;;;;;;4883601;29;20064;-73
2022/10/10 06:28:02;;;;;;;0.20;0.20;;;7.40;99.90;;;;;;4893390;29;20048;-73
2022/10/10 06:30:28;;;;;;;0.20;0.20;;;7.40;99.90;;;;;;4894965;29;20040;-74
2022/10/10 06:32:54;;;;;;;0.20;0.20;;;7.40;99.90;;;;;;4885548;29;20056;-80
2022/10/10 06:35:22;;;;;;;0.20;0.20;;;7.40;99.90;;;;;;4908526;29;20111;-78
2022/10/10 06:37:48;;;;;;;0.20;0.20;;;7.50;99.90;;;;;;4905947;29;20054;-77
2022/10/10 06:40:14;;;;;;;0.20;0.20;;;7.50;99.90;;;;;;4892578;29;20040;-78
2022/10/10 06:42:39;;;;;;;0.20;0.20;;;7.60;99.90;;;;;;4908217;29;20052;-78
2022/10/10 06:45:05;;;;;;;0.20;0.20;;;7.60;99.90;;;;;;4912427;29;20114;-79
2022/10/10 06:47:31;;;;;;;0.20;0.20;;;7.70;99.90;;;;;;4908899;29;20048;-79
2022/10/10 06:49:57;;;;;;;0.20;0.20;;;7.80;99.90;;;;;;4908675;29;20391;-79
2022/10/10 06:52:23;;;;;;;0.20;0.20;;;7.80;99.90;;;;;;4911838;29;20048;-79
2022/10/10 06:54:49;;;;;;;0.20;0.20;;;8.00;99.90;;;;;;4892611;29;20554;-79
2022/10/10 06:57:14;;;;;;;0.20;0.20;;;8.00;99.90;;;;;;4893686;29;20044;-80
2022/10/10 06:59:40;;;;;;;0.20;0.20;;;8.10;99.90;;;;;;4909503;29;20091;-79
2022/10/10 07:02:06;;;;;;;0.17;0.17;;;8.20;99.90;;;;;;4906741;29;20048;-78
2022/10/10 07:04:31;;;;;;;0.17;0.17;;;8.30;99.90;;;;;;4923770;29;20128;-79
2022/10/10 07:06:57;;;;;;;0.20;0.20;;;8.50;99.90;;;;;;4909575;29;20062;-79
2022/10/10 07:09:22;;;;;;;0.20;0.20;;;8.40;99.90;;;;;;4912557;29;20032;-79
2022/10/10 07:11:48;;;;;;;0.20;0.20;;;8.50;99.90;;;;;;4911284;29;20048;-80
2022/10/10 07:14:14;;;;;;;0.10;0.10;;;8.60;99.90;;;;;;4924880;29;20052;-77
2022/10/10 07:16:39;;;;;;;0.20;0.20;;;8.70;99.90;;;;;;4890482;29;20126;-80
2022/10/10 07:19:05;;;;;;;0.20;0.20;;;8.70;99.90;;;;;;4907358;29;20036;-80
2022/10/10 07:21:31;;;;;;;0.20;0.20;;;8.80;99.90;;;;;;4911931;29;20048;-80
2022/10/10 07:23:57;;;;;;;0.15;0.15;;;8.80;99.90;;;;;;4910687;29;20032;-80
2022/10/10 07:26:26;;;;;;;0.20;0.20;;;8.90;99.90;;;;;;4910092;29;20396;-80
2022/10/10 07:28:52;;;;;;;0.13;0.13;;;9.00;99.90;;;;;;4909101;29;20096;-80
2022/10/10 07:31:21;;;;;;;0.20;0.20;;;9.00;99.90;;;;;;4924512;29;20051;-79
2022/10/10 07:33:50;;;;;;;0.10;0.10;;;9.10;99.90;;;;;;4898595;29;20043;-79
2022/10/10 07:36:17;;;;;;;0.20;0.20;;;9.10;99.90;;;;;;4909137;29;20134;-79
2022/10/10 07:38:42;;;;;;;0.10;0.10;;;9.20;99.90;;;;;;4896727;29;20040;-79
2022/10/10 07:41:11;;;;;;;0.10;0.10;;;9.20;99.90;;;;;;4917583;29;20072;-78
2022/10/10 07:43:40;;;;;;;0.10;0.10;;;9.30;99.90;;;;;;4909356;29;20040;-79
2022/10/10 07:46:16;;;;;;;0.20;0.20;;;9.30;99.90;;;;;;4908162;29;20076;-78
2022/10/10 07:48:42;;;;;;;0.20;0.20;;;9.30;99.90;;;;;;4927914;29;20076;-78
2022/10/10 07:51:08;;;;;;;0.13;0.13;;;9.40;99.90;;;;;;4897937;29;20052;-79
2022/10/10 07:53:33;;;;;;;0.20;0.20;;;9.40;99.90;;;;;;4909543;29;20465;-79
2022/10/10 07:55:59;;;;;;;0.20;0.20;;;9.40;99.90;;;;;;4909637;29;20044;-79
2022/10/10 07:58:25;;;;;;;0.20;0.20;;;9.40;99.90;;;;;;4911747;29;20075;-80
2022/10/10 08:01:00;;;;;;;0.15;0.15;;;9.50;99.90;;;;;;4906353;29;20134;-78
2022/10/10 08:03:28;;;;;;;0.10;0.10;;;9.50;99.90;;;;;;4905526;29;20075;-80
2022/10/10 08:05:53;;;;;;;0.20;0.20;;;9.60;99.90;;;;;;4894557;29;20079;-81
2022/10/10 08:08:20;;;;;;;0.20;0.20;;;9.60;99.90;;;;;;4894618;29;20040;-80
2022/10/10 08:10:46;;;;;;;0.20;0.20;;;9.70;99.90;;;;;;4910326;29;20051;-82
2022/10/10 08:13:11;;;;;;;0.20;0.20;;;9.70;99.90;;;;;;4888167;29;20051;-79
2022/10/10 08:15:40;;;;;;;0.20;0.20;;;9.80;99.90;;;;;;4907469;29;20401;-79
2022/10/10 08:18:06;;;;;;;0.10;0.10;;;9.90;99.90;;;;;;4892639;29;20426;-79
2022/10/10 08:20:33;;;;;;;0.20;0.20;;;10.10;99.90;;;;;;4910868;29;20048;-77
2022/10/10 08:22:58;;;;;;;0.10;0.10;;;10.10;99.90;;;;;;4912949;29;20496;-79
2022/10/10 08:25:25;;;;;;;0.20;0.20;;;10.20;99.90;;;;;;4911141;29;20135;-79
2022/10/10 08:27:50;;;;;;;0.20;0.20;;;10.20;99.90;;;;;;4895547;29;20036;-80
2022/10/10 08:30:16;;;;;;;0.20;0.20;;;10.40;99.90;;;;;;4899170;29;20400;-78
2022/10/10 08:32:44;;;;;;;0.20;0.20;;;10.40;99.90;;;;;;4915671;29;20044;-79
2022/10/10 08:35:10;;;;;;;0.20;0.20;;;10.50;99.90;;;;;;4914853;29;20044;-80
2022/10/10 08:37:36;;;;;;;0.10;0.10;;;10.70;99.90;;;;;;4904741;29;20107;-78
2022/10/10 08:40:01;;;;;;;0.20;0.20;;;10.80;99.90;;;;;;4899112;29;20047;-79
2022/10/10 08:42:39;;;;;;;0.20;0.20;;;10.90;99.90;;;;;;4916043;29;20126;-79
2022/10/10 08:45:15;;;;;;;0.20;0.20;;;11.00;99.90;;;;;;4913232;29;20086;-80
2022/10/10 08:48:00;;;;;;;0.10;0.10;;;11.20;99.90;;;;;;4914060;29;20044;-78
2022/10/10 08:50:28;;;;;;;0.20;0.20;;;11.10;99.90;;;;;;4914225;29;20036;-79
2022/10/10 08:53:09;;;;;;;0.20;0.20;;;11.30;99.90;;;;;;4892952;29;20066;-79
2022/10/10 08:55:38;;;;;;;0.20;0.20;;;11.30;99.90;;;;;;4916148;29;20099;-78
2022/10/10 08:58:10;;;;;;;0.20;0.20;;;11.60;99.90;;;;;;4930632;29;20039;-79
2022/10/10 09:00:47;;;;;;;0.20;0.20;;;11.50;99.90;;;;;;4915396;29;20071;-79
2022/10/10 09:03:31;;;;;;;0.20;0.20;;;11.60;99.90;;;;;;4900200;29;20068;-78
2022/10/10 09:06:06;;;;;;;0.20;0.20;;;11.70;99.90;;;;;;4910779;29;20044;-79
2022/10/10 09:08:55;;;;;;;0.10;0.10;;;11.80;99.90;;;;;;4915332;29;20144;-80
2022/10/10 09:11:55;;;;;;;0.20;0.20;;;11.80;99.90;;;;;;4899454;29;20036;-78
2022/10/10 09:14:32;;;;;;;0.20;0.20;;;11.90;99.90;;;;;;4870150;29;20052;-79
2022/10/10 09:17:16;;;;;;;0.20;0.20;;;12.00;99.90;;;;;;4893645;29;20048;-78
2022/10/10 09:20:09;;;;;;;0.20;0.20;;;12.00;99.90;;;;;;4898004;29;20087;-77
2022/10/10 09:22:56;;;;;;;0.20;0.20;;;12.00;99.90;;;;;;4898902;29;20055;-79
2022/10/10 09:25:36;;;;;;;0.20;0.20;;;12.20;99.90;;;;;;4913040;29;20044;-78
2022/10/10 09:28:36;;;;;;;0.20;0.20;;;12.20;99.90;;;;;;4911618;29;20052;-77
2022/10/10 09:31:37;;;;;;;0.20;0.20;;;12.30;99.90;;;;;;4926353;29;20045;-80
2022/10/10 09:34:15;;;;;;;0.20;0.20;;;12.40;99.90;;;;;;4885609;29;20067;-79
2022/10/10 09:36:42;;;;;;;0.15;0.15;;;12.50;99.90;;;;;;4897068;29;20131;-78
2022/10/10 09:39:29;;;;;;;0.10;0.10;;;12.50;99.90;;;;;;4906701;29;20099;-79
2022/10/10 09:42:11;;;;;;;0.20;0.20;;;12.60;99.90;;;;;;4895798;29;20052;-78
2022/10/10 09:44:38;;;;;;;0.28;0.28;;;12.70;99.90;;;;;;4897536;29;20040;-79
2022/10/10 09:47:04;;;;;;;0.20;0.20;;;12.70;99.90;;;;;;4914932;29;20052;-79
2022/10/10 09:49:30;;;;;;;0.20;0.20;;;12.80;99.90;;;;;;4897516;29;20772;-79
2022/10/10 09:51:56;;;;;;;0.20;0.20;;;12.80;99.90;;;;;;4896093;29;20153;-79
2022/10/10 09:54:23;;;;;;;0.13;0.13;;;12.90;99.90;;;;;;4897496;29;20048;-79
2022/10/10 09:56:56;;;;;;;0.20;0.20;;;12.90;99.90;;;;;;4914075;29;20060;-79
2022/10/10 09:59:44;;;;;;;0.20;0.20;;;13.00;99.90;;;;;;4891236;29;20040;-79
2022/10/10 10:02:19;;;;;;;0.10;0.10;;;13.00;99.90;;;;;;4913865;29;20052;-79
2022/10/10 10:04:46;;;;;;;0.10;0.10;;;13.10;99.90;;;;;;4896021;29;20047;-78
2022/10/10 10:07:30;;;;;;;0.10;0.10;;;13.30;99.90;;;;;;4913535;29;20060;-79
2022/10/10 10:10:15;;;;;;;0.10;0.10;;;13.40;99.90;;;;;;4914459;29;20040;-79
2022/10/10 10:12:43;;;;;;;0.20;0.20;;;13.40;99.90;;;;;;4893740;29;20063;-79
2022/10/10 10:15:35;;;;;;;0.20;0.20;;;13.50;99.90;;;;;;4896308;29;20040;-78
2022/10/10 10:18:23;;;;;;;0.20;0.20;;;13.60;99.90;;;;;;4892380;29;20063;-78
2022/10/10 10:20:51;;;;;;;0.15;0.15;;;13.60;99.90;;;;;;4898032;29;20056;-79
2022/10/10 10:23:34;;;;;;;0.20;0.20;;;13.70;99.90;;;;;;4897062;29;20390;-79
2022/10/10 10:26:05;;;;;;;0.20;0.20;;;13.90;99.90;;;;;;4913084;29;20131;-79
2022/10/10 10:28:38;;;;;;;0.20;0.20;;;13.90;99.90;;;;;;4890346;29;20042;-79
2022/10/10 10:31:04;;;;;;;0.10;0.10;;;14.00;99.90;;;;;;4928914;29;20055;-79
2022/10/10 10:33:39;;;;;;;0.20;0.20;;;14.00;99.90;;;;;;4895541;29;20052;-79
2022/10/10 10:36:07;;;;;;;0.20;0.20;;;14.00;99.90;;;;;;4897527;29;20484;-79
2022/10/10 10:39:08;;;;;;;0.13;0.13;;;14.10;99.90;;;;;;4913028;29;20076;-79
2022/10/10 10:41:57;;;;;;;0.20;0.20;;;14.10;99.90;;;;;;4913281;29;20119;-79
2022/10/10 10:44:38;;;;;;;0.20;0.20;;;14.10;99.90;;;;;;4914017;29;20048;-78
2022/10/10 10:47:36;;;;;;;0.20;0.20;;;14.20;99.90;;;;;;4913713;29;20493;-78
2022/10/10 10:50:33;;;;;;;0.10;0.10;;;14.40;99.90;;;;;;4908658;29;20253;-79
2022/10/10 10:53:01;;;;;;;0.20;0.20;;;14.60;99.90;;;;;;4907199;29;20138;-79
2022/10/10 10:55:59;;;;;;;0.20;0.20;;;14.80;99.90;;;;;;4895978;29;20433;-79
2022/10/10 10:58:49;;;;;;;0.15;0.15;;;15.00;99.90;;;;;;4908139;29;20515;-79
2022/10/10 11:01:35;;;;;;;0.20;0.20;;;15.10;99.90;;;;;;4915785;29;20099;-79
2022/10/10 11:04:06;;;;;;;0.10;0.10;;;15.10;99.90;;;;;;4909907;29;20076;-79
2022/10/10 11:06:50;;;;;;;0.20;0.20;;;15.20;99.90;;;;;;4896050;29;20135;-79
2022/10/10 11:09:17;;;;;;;0.10;0.10;;;15.30;99.90;;;;;;4894470;29;20048;-79
2022/10/10 11:12:01;;;;;;;0.17;0.17;;;15.30;99.90;;;;;;4913645;29;20055;-76
2022/10/10 11:14:46;;;;;;;0.10;0.10;;;15.40;99.90;;;;;;4914107;29;20048;-79
2022/10/10 11:17:33;;;;;;;0.20;0.20;;;15.40;99.90;;;;;;4891258;29;20048;-79
2022/10/10 11:20:23;;;;;;;0.10;0.10;;;15.30;99.90;;;;;;4907682;29;20075;-79
2022/10/10 11:23:01;;;;;;;0.20;0.20;;;15.20;99.90;;;;;;4911197;29;20162;-79
2022/10/10 11:25:40;;;;;;;0.17;0.17;;;15.20;99.90;;;;;;4896438;29;20132;-78
2022/10/10 11:28:14;;;;;;;0.10;0.10;;;15.10;99.90;;;;;;4906059;29;20047;-78
2022/10/10 11:30:45;;;;;;;0.10;0.10;;;15.00;99.90;;;;;;4893978;29;20074;-78
2022/10/10 11:33:33;;;;;;;0.20;0.20;;;15.00;99.90;;;;;;4903636;29;20051;-78
2022/10/10 11:36:04;;;;;;;0.20;0.20;;;14.90;99.90;;;;;;4911488;29;20052;-79
2022/10/10 11:38:43;;;;;;;0.20;0.20;;;14.90;99.90;;;;;;4896044;29;20046;-79
2022/10/10 11:41:32;;;;;;;0.20;0.20;;;14.90;99.90;;;;;;4926712;29;20060;-78
2022/10/10 11:44:10;;;;;;;0.20;0.20;;;14.80;99.90;;;;;;4911659;29;20126;-78
2022/10/10 11:46:39;;;;;;;0.50;0.20;;;14.80;99.90;;;;;;4913103;29;20125;-79
2022/10/10 11:49:33;;;;;;;0.40;0.40;;;14.80;99.90;;;;;;4895280;29;20048;-79
2022/10/10 11:52:17;;;;;;;0.20;0.20;;;14.80;99.90;;;;;;4895712;29;20133;-79
2022/10/10 11:54:48;;;;;;;0.20;0.20;;;14.70;99.90;;;;;;4894080;29;20052;-79
2022/10/10 11:57:41;;;;;;;0.10;0.10;;;14.60;99.90;;;;;;4899890;29;20500;-79
2022/10/10 12:00:13;;;;;;;0.10;0.10;;;14.70;99.90;;;;;;4904527;29;20052;-79
2022/10/10 12:02:41;;;;;;;0.20;0.20;;;14.60;99.90;;;;;;4912706;29;20501;-78
2022/10/10 12:05:24;;;;;;;0.20;0.20;;;14.60;99.90;;;;;;4893442;29;20052;-78
2022/10/10 12:07:55;;;;;;;0.10;0.10;;;14.50;99.90;;;;;;4894362;29;20050;-79
2022/10/10 12:10:26;;;;;;;0.20;0.20;;;14.50;99.90;;;;;;4905092;29;20115;-78
2022/10/10 12:12:56;;;;;;;0.20;0.20;;;14.60;99.90;;;;;;4912935;29;20516;-78
2022/10/10 12:15:35;;;;;;;0.20;0.20;;;14.60;99.90;;;;;;4911423;29;20512;-78
2022/10/10 12:18:01;;;;;;;0.20;0.20;;;14.60;99.90;;;;;;4908458;29;20548;-78
2022/10/10 12:20:26;;;;;;;0.10;0.10;;;14.50;99.90;;;;;;4913011;29;20040;-78
2022/10/10 12:23:17;;;;;;;0.20;0.20;;;14.50;99.90;;;;;;4894182;29;20119;-78
2022/10/10 12:25:45;;;;;;;0.20;0.20;;;14.50;99.90;;;;;;4908121;29;20040;-78
2022/10/10 12:28:13;;;;;;;0.30;0.30;;;14.50;99.90;;;;;;4912176;29;20055;-79
2022/10/10 12:30:51;;;;;;;0.10;0.10;;;14.50;99.90;;;;;;4891562;29;20060;-79
2022/10/10 12:33:42;;;;;;;0.20;0.20;;;14.50;99.90;;;;;;4910426;29;20048;-78
2022/10/10 12:36:34;;;;;;;0.22;0.22;;;14.70;99.90;;;;;;4925221;29;20186;-79
2022/10/10 12:39:00;;;;;;;0.20;0.20;;;14.60;99.90;;;;;;4906669;29;20055;-79
2022/10/10 12:41:41;;;;;;;0.10;0.10;;;14.50;99.90;;;;;;4913465;29;20048;-79
2022/10/10 12:44:23;;;;;;;0.20;0.20;;;14.50;99.90;;;;;;4893830;29;20131;-78
2022/10/10 12:47:14;;;;;;;0.20;0.20;;;14.50;99.90;;;;;;4895699;29;20316;-80
2022/10/10 12:49:51;;;;;;;0.20;0.20;;;14.40;99.90;;;;;;4894669;29;20048;-78
2022/10/10 12:52:47;;;;;;;0.10;0.10;;;14.40;99.90;;;;;;4913516;29;20062;-78
2022/10/10 12:55:41;;;;;;;0.20;0.20;;;14.40;99.90;;;;;;4930995;29;20052;-77
2022/10/10 12:58:16;;;;;;;0.20;0.20;;;14.40;99.90;;;;;;4896424;29;20059;-76
2022/10/10 13:00:44;;;;;;;0.20;0.20;;;14.30;99.90;;;;;;4904048;29;20392;-78
2022/10/10 13:03:20;;;;;;;0.10;0.10;;;14.30;99.90;;;;;;4892380;29;20507;-78
2022/10/10 13:05:47;;;;;;;0.10;0.10;;;14.30;99.90;;;;;;4924070;29;20048;-78
2022/10/10 13:08:17;;;;;;;0.20;0.20;;;14.30;99.90;;;;;;4915576;29;20075;-77
2022/10/10 13:11:04;;;;;;;0.20;0.20;;;14.20;99.90;;;;;;4893175;29;20400;-77
2022/10/10 13:13:30;;;;;;;0.20;0.20;;;14.10;99.90;;;;;;4909189;29;20080;-77
2022/10/10 13:15:58;;;;;;;0.20;0.20;;;14.10;99.90;;;;;;4910854;29;20479;-78
2022/10/10 13:18:35;;;;;;;0.20;0.20;;;14.10;99.90;;;;;;4894789;29;20048;-78
2022/10/10 13:21:03;;;;;;;0.20;0.20;;;14.10;99.90;;;;;;4898328;29;20040;-78
2022/10/10 13:23:28;;;;;;;0.20;0.20;;;14.10;99.90;;;;;;4902848;29;20131;-78
2022/10/10 13:25:54;;;;;;;0.20;0.20;;;14.00;99.90;;;;;;4916029;29;20159;-78
2022/10/10 13:28:23;;;;;;;0.10;0.10;;;14.00;99.90;;;;;;4896654;29;20162;-78
2022/10/10 13:30:50;;;;;;;0.20;0.20;;;14.00;99.90;;;;;;4924661;29;20143;-78
2022/10/10 13:33:22;;;;;;;0.20;0.20;;;13.90;99.90;;;;;;4920479;29;20563;-78
2022/10/10 13:35:49;;;;;;;0.17;0.17;;;13.90;99.90;;;;;;4914712;29;20212;-78
2022/10/10 13:38:17;;;;;;;0.10;0.10;;;13.90;99.90;;;;;;4915935;29;20040;-79
2022/10/10 13:40:44;;;;;;;0.10;0.10;;;13.90;99.90;;;;;;4894301;29;20512;-78